createdAt,value
2018-11-14T00:00:52.717Z,14.93
2018-11-14T00:03:20.901Z,8.20
2018-11-14T00:05:49.037Z,15.67
2018-11-14T00:08:17.193Z,6.40
2018-11-14T00:10:45.385Z,10.17
2018-11-14T00:13:13.536Z,8.30
2018-11-14T00:15:41.698Z,8.77
2018-11-14T00:18:09.945Z,17.77
2018-11-14T00:20:38.108Z,10.67
2018-11-14T00:23:06.311Z,9.73
2018-11-14T00:25:34.485Z,7.27
2018-11-14T00:28:03.063Z,11.27
2018-11-14T00:30:31.008Z,9.97
2018-11-14T00:32:59.176Z,11.03
2018-11-14T00:35:27.337Z,14.30
2018-11-14T00:37:55.513Z,11.30
2018-11-14T00:40:23.679Z,10.63
2018-11-14T00:42:51.834Z,12.23
2018-11-14T00:45:21.112Z,11.20
2018-11-14T00:47:49.933Z,12.50
2018-11-14T00:50:18.820Z,9.07
2018-11-14T00:52:47.208Z,11.90
2018-11-14T00:55:19.511Z,17.43
2018-11-14T00:57:48.607Z,10.40
2018-11-14T01:00:18.245Z,8.57
2018-11-14T01:02:46.495Z,9.60
2018-11-14T01:05:15.323Z,10.40
2018-11-14T01:07:43.476Z,9.53
2018-11-14T01:10:14.248Z,7.87
2018-11-14T01:12:42.850Z,10.90
2018-11-14T01:15:13.978Z,9.87
2018-11-14T01:17:42.502Z,11.90
2018-11-14T01:20:12.800Z,9.10
2018-11-14T01:22:41.745Z,8.90
2018-11-14T01:25:11.044Z,7.00
2018-11-14T01:27:39.194Z,10.50
2018-11-14T01:30:13.076Z,13.30
2018-11-14T01:32:41.357Z,9.70
2018-11-14T01:35:09.689Z,10.97
2018-11-14T01:37:37.885Z,13.37
2018-11-14T01:40:10.543Z,15.20
2018-11-14T01:42:38.800Z,9.83
2018-11-14T01:45:08.813Z,14.23
2018-11-14T01:47:37.008Z,12.63
2018-11-14T01:50:15.651Z,13.73
2018-11-14T01:52:43.905Z,9.50
2018-11-14T01:55:13.560Z,14.78
2018-11-14T01:57:41.701Z,13.77
2018-11-14T02:00:12.293Z,13.03
2018-11-14T02:02:40.809Z,14.83
2018-11-14T02:05:09.579Z,11.90
2018-11-14T02:07:37.779Z,17.33
2018-11-14T02:10:08.825Z,13.80
2018-11-14T02:12:37.561Z,13.57
2018-11-14T02:15:07.377Z,16.80
2018-11-14T02:17:35.537Z,18.83
2018-11-14T02:20:04.020Z,16.63
2018-11-14T02:22:32.224Z,14.80
2018-11-14T02:25:00.398Z,19.07
2018-11-14T02:27:28.598Z,12.03
2018-11-14T02:29:56.877Z,15.80
2018-11-14T02:32:25.155Z,15.93
2018-11-14T02:34:53.342Z,15.45
2018-11-14T02:37:21.685Z,24.63
2018-11-14T02:39:49.880Z,14.87
2018-11-14T02:42:18.030Z,21.50
2018-11-14T02:44:46.185Z,18.20
2018-11-14T02:47:14.401Z,18.60
2018-11-14T02:49:42.609Z,16.57
2018-11-14T02:52:10.829Z,14.40
2018-11-14T02:54:39.002Z,21.30
2018-11-14T02:59:41.794Z,18.30
2018-11-14T03:02:09.985Z,14.80
2018-11-14T03:04:38.142Z,16.93
2018-11-14T03:07:06.313Z,17.17
2018-11-14T03:09:34.553Z,19.30
2018-11-14T03:12:02.739Z,15.73
2018-11-14T03:14:30.938Z,21.63
2018-11-14T03:16:59.082Z,22.65
2018-11-14T03:19:27.305Z,19.93
2018-11-14T03:21:55.461Z,19.13
2018-11-14T03:24:23.653Z,17.12
2018-11-14T03:26:51.812Z,16.30
2018-11-14T03:29:19.960Z,18.00
2018-11-14T03:31:48.210Z,18.40
2018-11-14T03:34:16.408Z,20.13
2018-11-14T03:36:44.555Z,19.20
2018-11-14T03:39:12.730Z,22.57
2018-11-14T03:41:40.929Z,19.50
2018-11-14T03:44:09.110Z,18.47
2018-11-14T03:46:37.275Z,17.07
2018-11-14T03:49:05.453Z,20.57
2018-11-14T03:51:33.776Z,22.48
2018-11-14T03:54:01.913Z,20.97
2018-11-14T03:56:30.081Z,16.97
2018-11-14T03:58:58.275Z,18.12
2018-11-14T04:01:26.441Z,16.63
2018-11-14T04:03:54.768Z,22.90
2018-11-14T04:06:22.924Z,15.30
2018-11-14T04:08:51.092Z,20.75
2018-11-14T04:11:19.266Z,19.93
2018-11-14T04:13:47.454Z,21.70
2018-11-14T04:16:15.619Z,18.70
2018-11-14T04:18:43.776Z,23.17
2018-11-14T04:21:11.949Z,20.50
2018-11-14T04:23:45.660Z,16.47
2018-11-14T04:26:13.910Z,22.07
2018-11-14T04:28:42.085Z,18.75
2018-11-14T04:31:10.241Z,16.50
2018-11-14T04:33:38.412Z,19.90
2018-11-14T04:36:06.584Z,18.82
2018-11-14T04:38:34.758Z,16.90
2018-11-14T04:41:02.946Z,19.67
2018-11-14T04:43:31.186Z,11.20
2018-11-14T04:45:59.331Z,9.13
2018-11-14T04:48:27.480Z,15.50
2018-11-14T04:50:55.647Z,15.23
2018-11-14T04:53:23.852Z,16.67
2018-11-14T04:55:52.033Z,14.80
2018-11-14T04:58:20.224Z,13.90
2018-11-14T05:00:48.406Z,9.93
2018-11-14T05:03:16.769Z,12.53
2018-11-14T05:05:44.924Z,27.40
2018-11-14T05:08:13.096Z,23.42
2018-11-14T05:10:41.281Z,25.30
2018-11-14T05:13:09.544Z,27.50
2018-11-14T05:15:37.634Z,24.90
2018-11-14T05:18:06.016Z,35.08
2018-11-14T05:20:34.173Z,34.47
2018-11-14T05:23:02.328Z,43.27
2018-11-14T05:25:30.496Z,30.17
2018-11-14T05:27:58.670Z,36.33
2018-11-14T05:30:26.834Z,38.97
2018-11-14T05:32:55.017Z,36.73
2018-11-14T05:35:23.194Z,41.93
2018-11-14T05:37:51.339Z,38.83
2018-11-14T05:40:20.811Z,31.77
2018-11-14T05:42:49.572Z,33.57
2018-11-14T05:45:19.281Z,38.93
2018-11-14T05:47:47.525Z,32.08
2018-11-14T05:50:16.796Z,33.00
2018-11-14T05:52:44.956Z,34.60
2018-11-14T05:55:13.786Z,38.07
2018-11-14T05:57:41.944Z,36.63
2018-11-14T06:00:23.097Z,45.80
2018-11-14T06:02:51.308Z,32.90
2018-11-14T06:05:19.508Z,44.90
2018-11-14T06:07:47.638Z,51.23
2018-11-14T06:10:15.809Z,58.30
2018-11-14T06:12:44.015Z,39.10
2018-11-14T06:15:15.480Z,40.73
2018-11-14T06:17:44.586Z,51.13
2018-11-14T06:20:16.056Z,43.20
2018-11-14T06:22:45.257Z,38.30
2018-11-14T06:25:23.389Z,39.85
2018-11-14T06:27:52.684Z,36.50
2018-11-14T06:30:21.173Z,38.15
2018-11-14T06:32:49.721Z,48.60
2018-11-14T06:35:18.477Z,34.05
2018-11-14T06:37:47.033Z,32.77
2018-11-14T06:40:15.229Z,40.87
2018-11-14T06:42:43.484Z,34.07
2018-11-14T06:45:13.477Z,50.00
2018-11-14T06:47:43.184Z,45.35
2018-11-14T06:50:12.197Z,40.67
2018-11-14T06:52:40.886Z,36.47
2018-11-14T06:55:10.813Z,36.90
2018-11-14T06:57:39.073Z,50.53
2018-11-14T07:00:09.546Z,40.03
2018-11-14T07:02:38.335Z,37.45
2018-11-14T07:05:08.041Z,37.40
2018-11-14T07:07:36.290Z,36.63
2018-11-14T07:10:04.555Z,34.10
2018-11-14T07:12:32.764Z,37.53
2018-11-14T07:15:01.001Z,41.00
2018-11-14T07:17:29.185Z,44.25
2018-11-14T07:19:57.505Z,62.00
2018-11-14T07:22:25.700Z,45.75
2018-11-14T07:24:53.866Z,32.33
2018-11-14T07:27:22.096Z,54.10
2018-11-14T07:29:50.441Z,52.50
2018-11-14T07:32:18.751Z,55.67
2018-11-14T07:34:46.888Z,52.23
2018-11-14T07:37:15.181Z,55.47
2018-11-14T07:39:43.389Z,36.90
2018-11-14T07:42:11.689Z,46.70
2018-11-14T07:44:39.932Z,39.43
2018-11-14T07:47:08.132Z,46.60
2018-11-14T07:49:36.336Z,66.67
2018-11-14T07:52:04.696Z,47.60
2018-11-14T07:54:33.139Z,62.10
2018-11-14T07:57:01.258Z,53.55
2018-11-14T07:59:29.427Z,59.87
2018-11-14T08:01:57.692Z,54.97
2018-11-14T08:04:25.856Z,65.83
2018-11-14T08:06:54.237Z,45.07
2018-11-14T08:09:22.683Z,57.57
2018-11-14T08:11:50.868Z,46.37
2018-11-14T08:14:19.404Z,35.23
2018-11-14T08:16:47.569Z,41.20
2018-11-14T08:19:15.711Z,44.23
2018-11-14T08:21:43.849Z,38.77
2018-11-14T08:24:12.008Z,47.40
2018-11-14T08:26:40.188Z,41.57
2018-11-14T08:29:08.392Z,55.40
2018-11-14T08:31:36.568Z,47.30
2018-11-14T08:34:04.941Z,50.53
2018-11-14T08:36:33.133Z,50.33
2018-11-14T08:39:01.294Z,53.83
2018-11-14T08:41:29.457Z,46.93
2018-11-14T08:43:57.700Z,59.33
2018-11-14T08:46:25.845Z,37.07
2018-11-14T08:48:54.009Z,47.57
2018-11-14T08:51:22.214Z,43.50
2018-11-14T08:53:50.347Z,48.63
2018-11-14T08:56:18.508Z,44.83
2018-11-14T08:58:46.686Z,42.50
2018-11-14T09:01:14.845Z,44.60
2018-11-14T09:03:43.036Z,40.10
2018-11-14T09:06:11.224Z,60.73
2018-11-14T09:08:39.383Z,54.53
2018-11-14T09:11:07.667Z,52.13
2018-11-14T09:13:35.748Z,47.37
2018-11-14T09:16:03.889Z,59.73
2018-11-14T09:18:32.117Z,57.87
2018-11-14T09:21:00.214Z,41.60
2018-11-14T09:23:28.361Z,49.43
2018-11-14T09:25:56.570Z,42.77
2018-11-14T09:28:24.747Z,38.93
2018-11-14T09:30:52.928Z,47.63
2018-11-14T09:33:21.230Z,44.33
2018-11-14T09:35:49.377Z,44.07
2018-11-14T09:38:17.530Z,42.70
2018-11-14T09:40:45.738Z,41.50
2018-11-14T09:43:13.868Z,43.03
2018-11-14T09:45:42.063Z,47.43
2018-11-14T09:48:10.237Z,42.37
2018-11-14T09:50:38.448Z,52.03
2018-11-14T09:53:06.831Z,43.90
2018-11-14T09:55:34.965Z,39.67
2018-11-14T09:58:03.151Z,47.30
2018-11-14T10:00:32.620Z,51.17
2018-11-14T10:03:02.931Z,46.40
2018-11-14T10:05:31.013Z,38.17
2018-11-14T10:07:59.227Z,48.33
2018-11-14T10:10:27.353Z,40.93
2018-11-14T10:12:55.505Z,38.97
2018-11-14T10:15:24.346Z,47.10
2018-11-14T10:17:52.492Z,30.20
2018-11-14T10:20:21.945Z,36.07
2018-11-14T10:22:50.317Z,33.50
2018-11-14T10:25:18.722Z,40.57
2018-11-14T10:27:47.680Z,38.07
2018-11-14T10:30:21.453Z,42.07
2018-11-14T10:32:50.025Z,37.43
2018-11-14T10:35:18.361Z,37.43
2018-11-14T10:37:46.615Z,41.63
2018-11-14T10:40:17.450Z,49.77
2018-11-14T10:42:45.829Z,42.37
2018-11-14T10:45:21.416Z,50.63
2018-11-14T10:47:54.126Z,44.90
2018-11-14T10:50:23.677Z,32.53
2018-11-14T10:52:51.829Z,39.40
2018-11-14T10:55:20.526Z,36.53
2018-11-14T10:57:48.739Z,45.03
2018-11-14T11:00:27.636Z,41.63
2018-11-14T11:03:01.565Z,32.20
2018-11-14T11:05:35.230Z,30.47
2018-11-14T11:08:09.158Z,37.13
2018-11-14T11:10:42.564Z,34.73
2018-11-14T11:13:16.329Z,34.30
2018-11-14T11:15:50.227Z,37.43
2018-11-14T11:18:19.450Z,29.27
2018-11-14T11:20:47.905Z,40.37
2018-11-14T11:23:16.299Z,24.30
2018-11-14T11:25:44.468Z,27.93
2018-11-14T11:28:12.684Z,27.30
2018-11-14T11:30:40.891Z,25.97
2018-11-14T11:33:09.141Z,24.77
2018-11-14T11:35:37.317Z,25.33
2018-11-14T11:38:05.737Z,31.77
2018-11-14T11:40:34.245Z,30.30
2018-11-14T11:43:03.455Z,29.10
2018-11-14T11:45:32.009Z,22.27
2018-11-14T11:48:00.199Z,25.33
2018-11-14T11:50:28.662Z,20.40
2018-11-14T11:52:56.970Z,22.33
2018-11-14T11:55:25.111Z,21.37
2018-11-14T11:57:53.436Z,20.70
2018-11-14T12:00:21.804Z,17.30
2018-11-14T12:02:49.876Z,25.60
2018-11-14T12:05:18.043Z,20.20
2018-11-14T12:07:46.486Z,22.00
2018-11-14T12:10:15.169Z,24.87
2018-11-14T12:12:44.309Z,17.53
2018-11-14T12:15:13.259Z,21.63
2018-11-14T12:17:42.183Z,28.13
2018-11-14T12:20:11.931Z,21.53
2018-11-14T12:22:40.896Z,21.27
2018-11-14T12:25:10.950Z,18.47
2018-11-14T12:27:39.182Z,21.50
2018-11-14T12:30:09.849Z,20.60
2018-11-14T12:32:38.347Z,20.40
2018-11-14T12:35:07.689Z,24.70
2018-11-14T12:37:35.862Z,18.97
2018-11-14T12:40:04.141Z,20.27
2018-11-14T12:42:32.321Z,18.10
2018-11-14T12:45:00.477Z,17.43
2018-11-14T12:47:28.638Z,16.67
2018-11-14T12:49:56.814Z,18.33
2018-11-14T12:52:24.998Z,17.57
2018-11-14T12:54:53.105Z,16.17
2018-11-14T12:57:21.282Z,20.07
2018-11-14T12:59:49.552Z,18.00
2018-11-14T13:02:17.684Z,19.67
2018-11-14T13:04:45.849Z,15.90
2018-11-14T13:07:14.069Z,19.77
2018-11-14T13:09:42.230Z,22.70
2018-11-14T13:12:10.401Z,23.03
2018-11-14T13:14:38.579Z,21.43
2018-11-14T13:17:06.767Z,21.27
2018-11-14T13:19:34.998Z,24.07
2018-11-14T13:22:03.238Z,23.37
2018-11-14T13:24:31.385Z,23.47
2018-11-14T13:26:59.853Z,20.77
2018-11-14T13:29:28.229Z,26.73
2018-11-14T13:31:56.417Z,21.33
2018-11-14T13:34:24.849Z,21.03
2018-11-14T13:36:53.108Z,20.40
2018-11-14T13:39:21.249Z,23.07
2018-11-14T13:41:49.445Z,24.33
2018-11-14T13:44:17.576Z,20.70
2018-11-14T13:46:45.742Z,22.70
2018-11-14T13:49:14.178Z,23.20
2018-11-14T13:51:42.094Z,19.63
2018-11-14T13:54:10.250Z,24.30
2018-11-14T13:56:38.453Z,24.90
2018-11-14T13:59:06.665Z,18.57
2018-11-14T14:01:34.973Z,24.50
2018-11-14T14:04:03.107Z,17.37
2018-11-14T14:06:31.290Z,20.03
2018-11-14T14:08:59.421Z,20.07
2018-11-14T14:11:27.830Z,18.87
2018-11-14T14:14:01.393Z,21.37
2018-11-14T14:16:29.643Z,15.93
2018-11-14T14:18:57.725Z,22.43
2018-11-14T14:21:25.911Z,17.87
2018-11-14T14:23:54.174Z,20.83
2018-11-14T14:26:22.319Z,17.37
2018-11-14T14:28:50.517Z,16.50
2018-11-14T14:31:18.745Z,20.97
2018-11-14T14:33:46.953Z,17.67
2018-11-14T14:36:15.141Z,16.27
2018-11-14T14:38:43.312Z,19.43
2018-11-14T14:41:11.564Z,20.30
2018-11-14T14:43:39.804Z,20.80
2018-11-14T14:46:07.992Z,24.30
2018-11-14T14:48:36.268Z,26.70
2018-11-14T14:51:04.766Z,22.47
2018-11-14T14:53:32.983Z,27.77
2018-11-14T14:56:01.134Z,30.40
2018-11-14T14:58:29.339Z,29.83
2018-11-14T15:00:58.404Z,23.10
2018-11-14T15:03:26.613Z,24.23
2018-11-14T15:05:54.749Z,23.97
2018-11-14T15:08:22.923Z,24.30
2018-11-14T15:10:51.064Z,29.37
2018-11-14T15:13:25.790Z,23.40
2018-11-14T15:15:53.972Z,27.50
2018-11-14T15:18:22.121Z,31.33
2018-11-14T15:20:50.258Z,28.40
2018-11-14T15:23:18.423Z,25.33
2018-11-14T15:25:46.592Z,34.13
2018-11-14T15:28:14.873Z,28.77
2018-11-14T15:30:43.045Z,30.93
2018-11-14T15:33:11.248Z,29.37
2018-11-14T15:35:39.417Z,28.73
2018-11-14T15:38:07.619Z,25.43
2018-11-14T15:40:35.793Z,32.93
2018-11-14T15:43:03.977Z,35.57
2018-11-14T15:45:32.155Z,26.73
2018-11-14T15:48:00.402Z,31.20
2018-11-14T15:50:29.660Z,30.73
2018-11-14T15:52:58.451Z,33.87
2018-11-14T15:55:26.633Z,33.43
2018-11-14T15:57:54.936Z,41.67
2018-11-14T16:00:30.204Z,32.13
2018-11-14T16:02:58.375Z,34.17
2018-11-14T16:05:27.725Z,31.60
2018-11-14T16:07:57.098Z,34.10
2018-11-14T16:10:26.229Z,30.10
2018-11-14T16:12:54.400Z,26.30
2018-11-14T16:15:28.069Z,30.20
2018-11-14T16:17:56.237Z,18.20
2018-11-14T16:20:25.316Z,17.13
2018-11-14T16:22:53.496Z,13.17
2018-11-14T16:25:22.673Z,16.02
2018-11-14T16:27:52.148Z,9.80
2018-11-14T16:30:26.464Z,11.03
2018-11-14T16:32:55.882Z,14.17
2018-11-14T16:35:24.065Z,10.27
2018-11-14T16:37:52.264Z,7.73
2018-11-14T16:40:21.748Z,8.17
2018-11-14T16:42:50.754Z,10.07
2018-11-14T16:45:19.014Z,9.27
2018-11-14T16:47:47.163Z,8.20
2018-11-14T16:50:16.547Z,14.33
2018-11-14T16:52:44.708Z,21.83
2018-11-14T16:55:14.043Z,10.97
2018-11-14T16:57:43.069Z,12.47
2018-11-14T17:00:19.754Z,19.93
2018-11-14T17:02:48.082Z,14.30
2018-11-14T17:05:16.637Z,22.53
2018-11-14T17:07:44.823Z,13.65
2018-11-14T17:10:15.148Z,12.23
2018-11-14T17:12:44.181Z,14.90
2018-11-14T17:15:13.569Z,26.57
2018-11-14T17:17:41.797Z,19.05
2018-11-14T17:20:10.875Z,18.50
2018-11-14T17:22:39.381Z,23.40
2018-11-14T17:25:08.287Z,22.77
2018-11-14T17:27:36.490Z,21.83
2018-11-14T17:30:07.023Z,15.03
2018-11-14T17:32:35.205Z,20.80
2018-11-14T17:35:03.420Z,19.27
2018-11-14T17:37:31.651Z,21.77
2018-11-14T17:39:59.821Z,25.97
2018-11-14T17:42:28.157Z,24.90
2018-11-14T17:44:56.194Z,24.27
2018-11-14T17:47:24.438Z,21.97
2018-11-14T17:49:52.553Z,19.20
2018-11-14T17:52:20.721Z,22.33
2018-11-14T17:54:48.871Z,20.67
2018-11-14T17:57:17.113Z,19.37
2018-11-14T17:59:45.262Z,20.63
2018-11-14T18:02:13.441Z,22.93
2018-11-14T18:04:41.665Z,21.27
2018-11-14T18:07:09.871Z,18.97
2018-11-14T18:09:38.018Z,26.60
2018-11-14T18:12:06.190Z,22.90
2018-11-14T18:14:34.470Z,29.30
2018-11-14T18:17:02.580Z,24.93
2018-11-14T18:19:30.739Z,32.03
2018-11-14T18:21:58.905Z,27.87
2018-11-14T18:24:27.079Z,23.13
2018-11-14T18:26:55.244Z,25.20
2018-11-14T18:29:23.433Z,28.80
2018-11-14T18:31:51.589Z,46.87
2018-11-14T18:34:19.753Z,30.07
2018-11-14T18:36:47.925Z,24.90
2018-11-14T18:39:16.134Z,24.50
2018-11-14T18:41:44.853Z,25.27
2018-11-14T18:44:13.099Z,26.37
2018-11-14T18:46:41.243Z,24.37
2018-11-14T18:49:09.441Z,20.27
2018-11-14T18:51:37.590Z,21.90
2018-11-14T18:54:05.944Z,23.03
2018-11-14T18:56:34.136Z,22.30
2018-11-14T18:59:02.334Z,27.35
2018-11-14T19:01:30.553Z,23.53
2018-11-14T19:03:58.693Z,23.50
2018-11-14T19:06:26.872Z,22.50
2018-11-14T19:08:55.033Z,23.87
2018-11-14T19:11:23.173Z,24.47
2018-11-14T19:13:52.620Z,23.30
2018-11-14T19:16:20.885Z,27.60
2018-11-14T19:18:49.138Z,29.03
2018-11-14T19:21:17.726Z,21.80
2018-11-14T19:30:44.922Z,27.77
2018-11-14T19:33:13.052Z,33.53
2018-11-14T19:35:41.222Z,31.43
2018-11-14T19:38:09.352Z,32.60
2018-11-14T19:40:38.000Z,31.93
2018-11-14T19:43:07.892Z,24.20
2018-11-14T19:45:37.200Z,30.13
2018-11-14T19:48:05.719Z,167.30
2018-11-14T19:50:33.981Z,45.33
2018-11-14T19:53:02.427Z,28.33
2018-11-14T19:55:31.211Z,27.80
2018-11-14T19:58:00.637Z,27.07
2018-11-14T20:00:30.052Z,30.20
2018-11-14T20:02:58.241Z,27.60
2018-11-14T20:05:26.427Z,27.20
2018-11-14T20:07:54.701Z,28.47
2018-11-14T20:10:26.451Z,31.20
2018-11-14T20:12:54.698Z,35.80
2018-11-14T20:15:24.196Z,35.47
2018-11-14T20:17:52.514Z,33.33
2018-11-14T20:20:24.062Z,33.67
2018-11-14T20:22:52.239Z,35.03
2018-11-14T20:25:20.537Z,35.00
2018-11-14T20:27:48.916Z,24.30
2018-11-14T20:30:21.746Z,32.47
2018-11-14T20:32:50.323Z,30.57
2018-11-14T20:35:19.540Z,29.73
2018-11-14T20:37:47.703Z,38.57
2018-11-14T20:40:17.993Z,29.53
2018-11-14T20:42:46.786Z,25.67
2018-11-14T20:45:17.434Z,32.40
2018-11-14T20:47:45.644Z,29.80
2018-11-14T20:50:16.041Z,35.80
2018-11-14T20:52:45.073Z,33.93
2018-11-14T20:55:13.726Z,24.43
2018-11-14T20:57:42.452Z,28.23
2018-11-14T21:00:19.902Z,25.83
2018-11-14T21:02:48.087Z,29.53
2018-11-14T21:05:16.250Z,27.37
2018-11-14T21:07:44.624Z,30.30
2018-11-14T21:10:13.925Z,28.50
2018-11-14T21:12:42.785Z,31.50
2018-11-14T21:15:13.914Z,34.10
2018-11-14T21:17:42.481Z,31.03
2018-11-14T21:20:10.974Z,28.13
2018-11-14T21:22:39.584Z,27.90
2018-11-14T21:25:09.244Z,28.53
2018-11-14T21:27:37.447Z,29.37
2018-11-14T21:30:08.013Z,30.87
2018-11-14T21:32:36.219Z,31.23
2018-11-14T21:35:04.801Z,28.90
2018-11-14T21:37:32.970Z,27.60
2018-11-14T21:40:01.123Z,35.37
2018-11-14T21:42:29.287Z,30.83
2018-11-14T21:44:57.491Z,25.17
2018-11-14T21:47:31.141Z,32.57
2018-11-14T21:49:59.283Z,30.67
2018-11-14T21:52:27.441Z,31.27
2018-11-14T21:54:55.607Z,26.30
2018-11-14T21:57:23.769Z,28.30
2018-11-14T21:59:51.911Z,30.03
2018-11-14T22:02:20.078Z,25.77
2018-11-14T22:04:48.248Z,28.37
2018-11-14T22:07:16.440Z,25.33
2018-11-14T22:09:44.594Z,23.40
2018-11-14T22:12:12.779Z,26.40
2018-11-14T22:14:40.924Z,22.23
2018-11-14T22:17:09.082Z,24.50
2018-11-14T22:19:37.249Z,23.70
2018-11-14T22:22:05.658Z,26.40
2018-11-14T22:24:33.794Z,24.77
2018-11-14T22:27:01.944Z,26.63
2018-11-14T22:29:30.122Z,25.70
2018-11-14T22:31:58.283Z,25.03
2018-11-14T22:34:26.432Z,28.77
2018-11-14T22:36:54.622Z,25.63
2018-11-14T22:39:22.758Z,24.43
2018-11-14T22:41:51.002Z,41.17
2018-11-14T22:44:19.166Z,25.30
2018-11-14T22:46:47.315Z,29.43
2018-11-14T22:49:15.505Z,22.87
2018-11-14T22:51:43.638Z,21.50
2018-11-14T22:54:11.827Z,22.90
2018-11-14T22:56:39.955Z,27.70
2018-11-14T22:59:08.120Z,26.30
2018-11-14T23:01:36.317Z,21.63
2018-11-14T23:04:04.657Z,27.43
2018-11-14T23:06:32.805Z,28.13
2018-11-14T23:09:00.955Z,20.07
2018-11-14T23:11:29.132Z,22.50
2018-11-14T23:13:57.280Z,23.00
2018-11-14T23:16:25.436Z,21.00
2018-11-14T23:18:53.609Z,22.53
2018-11-14T23:21:21.760Z,23.40
2018-11-14T23:23:49.915Z,22.17
2018-11-14T23:26:18.066Z,25.47
2018-11-14T23:28:46.213Z,23.57
2018-11-14T23:31:14.349Z,25.57
2018-11-14T23:33:42.540Z,26.43
2018-11-14T23:36:10.744Z,25.80
2018-11-14T23:38:38.942Z,25.77
2018-11-14T23:41:07.110Z,27.40
2018-11-14T23:43:35.433Z,23.07
2018-11-14T23:46:03.592Z,22.57
2018-11-14T23:48:32.055Z,28.60
2018-11-14T23:51:00.233Z,27.87
2018-11-14T23:53:28.665Z,26.97
2018-11-14T23:55:56.836Z,26.60
2018-11-14T23:58:25.005Z,19.13
